sensor_id;sensor_type;location;lat;lon;timestamp;pressure;altitude;pressure_sealevel;temperature;humidity
62710;BME280;48770;51.624;5.886;2023-04-04T00:00:23;102809.38;;;20.50;34.16
62710;BME280;48770;51.624;5.886;2023-04-04T00:02:48;102812.16;;;20.50;33.94
62710;BME280;48770;51.624;5.886;2023-04-04T00:05:14;102815.25;;;20.49;33.93
62710;BME280;48770;51.624;5.886;2023-04-04T00:07:39;102817.19;;;20.48;34.03
62710;BME280;48770;51.624;5.886;2023-04-04T00:10:05;102819.97;;;20.48;34.03
62710;BME280;48770;51.624;5.886;2023-04-04T00:12:30;102827.47;;;20.48;33.92
62710;BME280;48770;51.624;5.886;2023-04-04T00:14:56;102824.19;;;20.46;33.99
62710;BME280;48770;51.624;5.886;2023-04-04T00:17:21;102826.13;;;20.45;34.19
62710;BME280;48770;51.624;5.886;2023-04-04T00:19:46;102830.88;;;20.45;34.14
62710;BME280;48770;51.624;5.886;2023-04-04T00:22:12;102813.38;;;20.44;33.69
62710;BME280;48770;51.624;5.886;2023-04-04T00:24:40;102818.09;;;20.44;33.86
62710;BME280;48770;51.624;5.886;2023-04-04T00:27:05;102820.06;;;20.43;34.12
62710;BME280;48770;51.624;5.886;2023-04-04T00:29:31;102820.38;;;20.42;33.91
62710;BME280;48770;51.624;5.886;2023-04-04T00:31:58;102821.19;;;20.42;33.79
62710;BME280;48770;51.624;5.886;2023-04-04T00:34:23;102818.72;;;20.41;33.99
62710;BME280;48770;51.624;5.886;2023-04-04T00:36:49;102820.66;;;20.40;33.95
62710;BME280;48770;51.624;5.886;2023-04-04T00:39:14;102817.88;;;20.40;34.06
62710;BME280;48770;51.624;5.886;2023-04-04T00:41:40;102819.28;;;20.38;33.91
62710;BME280;48770;51.624;5.886;2023-04-04T00:44:05;102820.13;;;20.38;33.93
62710;BME280;48770;51.624;5.886;2023-04-04T00:46:31;102819.28;;;20.38;33.96
62710;BME280;48770;51.624;5.886;2023-04-04T00:48:57;102810.13;;;20.37;34.01
62710;BME280;48770;51.624;5.886;2023-04-04T00:51:23;102817.63;;;20.37;34.10
62710;BME280;48770;51.624;5.886;2023-04-04T00:53:49;102815.97;;;20.36;34.04
62710;BME280;48770;51.624;5.886;2023-04-04T00:56:15;102815.16;;;20.35;33.92
62710;BME280;48770;51.624;5.886;2023-04-04T00:58:42;102813.50;;;20.34;34.03
62710;BME280;48770;51.624;5.886;2023-04-04T01:01:07;102812.69;;;20.33;33.96
62710;BME280;48770;51.624;5.886;2023-04-04T01:03:35;102811.84;;;20.33;33.83
62710;BME280;48770;51.624;5.886;2023-04-04T01:06:01;102810.22;;;20.32;33.89
62710;BME280;48770;51.624;5.886;2023-04-04T01:08:28;102804.97;;;20.30;33.85
62710;BME280;48770;51.624;5.886;2023-04-04T01:10:54;102810.78;;;20.29;34.06
62710;BME280;48770;51.624;5.886;2023-04-04T01:13:20;102801.34;;;20.30;33.99
62710;BME280;48770;51.624;5.886;2023-04-04T01:15:46;102798.56;;;20.30;33.98
62710;BME280;48770;51.624;5.886;2023-04-04T01:18:14;102799.66;;;20.29;34.05
62710;BME280;48770;51.624;5.886;2023-04-04T01:20:49;102796.38;;;20.27;34.41
62710;BME280;48770;51.624;5.886;2023-04-04T01:23:16;102798.31;;;20.26;34.13
62710;BME280;48770;51.624;5.886;2023-04-04T01:25:42;102797.50;;;20.26;33.94
62710;BME280;48770;51.624;5.886;2023-04-04T01:28:08;102793.06;;;20.25;34.01
62710;BME280;48770;51.624;5.886;2023-04-04T01:30:35;102798.63;;;20.25;34.21
62710;BME280;48770;51.624;5.886;2023-04-04T01:33:08;102797.81;;;20.24;34.07
62710;BME280;48770;51.624;5.886;2023-04-04T01:35:42;102789.78;;;20.23;33.96
62710;BME280;48770;51.624;5.886;2023-04-04T01:38:27;102793.47;;;20.18;34.24
62710;BME280;48770;51.624;5.886;2023-04-04T01:41:01;102792.34;;;20.19;34.07
62710;BME280;48770;51.624;5.886;2023-04-04T01:43:29;102793.47;;;20.18;33.90
62710;BME280;48770;51.624;5.886;2023-04-04T01:45:54;102791.50;;;20.19;33.97
62710;BME280;48770;51.624;5.886;2023-04-04T01:48:20;102790.38;;;20.20;34.20
62710;BME280;48770;51.624;5.886;2023-04-04T01:50:46;102793.16;;;20.20;33.94
62710;BME280;48770;51.624;5.886;2023-04-04T01:53:11;102789.03;;;20.17;34.06
62710;BME280;48770;51.624;5.886;2023-04-04T01:55:37;102796.53;;;20.17;34.02
62710;BME280;48770;51.624;5.886;2023-04-04T01:58:02;102789.34;;;20.16;34.11
62710;BME280;48770;51.624;5.886;2023-04-04T02:00:27;102783.78;;;20.16;33.98
62710;BME280;48770;51.624;5.886;2023-04-04T02:02:52;102789.34;;;20.16;33.83
62710;BME280;48770;51.624;5.886;2023-04-04T02:05:18;102788.50;;;20.15;34.09
62710;BME280;48770;51.624;5.886;2023-04-04T02:07:49;102791.59;;;20.14;33.86
62710;BME280;48770;51.624;5.886;2023-04-04T02:10:15;102779.34;;;20.15;34.11
62710;BME280;48770;51.624;5.886;2023-04-04T02:12:41;102784.91;;;20.15;34.14
62710;BME280;48770;51.624;5.886;2023-04-04T02:15:06;102788.50;;;20.15;33.88
62710;BME280;48770;51.624;5.886;2023-04-04T02:17:31;102789.34;;;20.16;33.87
62710;BME280;48770;51.624;5.886;2023-04-04T02:19:57;102789.34;;;20.16;33.71
62710;BME280;48770;51.624;5.886;2023-04-04T02:22:22;102792.94;;;20.16;33.84
62710;BME280;48770;51.624;5.886;2023-04-04T02:24:47;102794.88;;;20.16;34.00
62710;BME280;48770;51.624;5.886;2023-04-04T02:27:13;102801.25;;;20.16;34.04
62710;BME280;48770;51.624;5.886;2023-04-04T02:29:38;102802.09;;;20.17;33.70
62710;BME280;48770;51.624;5.886;2023-04-04T02:32:03;102798.19;;;20.18;33.78
62710;BME280;48770;51.624;5.886;2023-04-04T02:34:28;102800.97;;;20.18;33.78
62710;BME280;48770;51.624;5.886;2023-04-04T02:36:54;102798.50;;;20.16;33.75
62710;BME280;48770;51.624;5.886;2023-04-04T02:39:19;102804.88;;;20.17;33.67
62710;BME280;48770;51.624;5.886;2023-04-04T02:41:44;102804.03;;;20.16;33.91
62710;BME280;48770;51.624;5.886;2023-04-04T02:44:10;102800.75;;;20.14;33.66
62710;BME280;48770;51.624;5.886;2023-04-04T02:46:36;102798.78;;;20.15;33.72
62710;BME280;48770;51.624;5.886;2023-04-04T02:49:01;102791.59;;;20.14;33.81
62710;BME280;48770;51.624;5.886;2023-04-04T02:51:27;102793.25;;;20.15;33.78
62710;BME280;48770;51.624;5.886;2023-04-04T02:53:53;102792.41;;;20.14;33.85
62710;BME280;48770;51.624;5.886;2023-04-04T02:56:18;102793.53;;;20.13;33.94
62710;BME280;48770;51.624;5.886;2023-04-04T02:58:43;102791.06;;;20.12;33.85
62710;BME280;48770;51.624;5.886;2023-04-04T03:01:09;102791.06;;;20.12;33.75
62710;BME280;48770;51.624;5.886;2023-04-04T03:03:34;102791.06;;;20.12;33.85
62710;BME280;48770;51.624;5.886;2023-04-04T03:06:00;102788.28;;;20.12;33.92
62710;BME280;48770;51.624;5.886;2023-04-04T03:08:26;102785.50;;;20.12;33.79
62710;BME280;48770;51.624;5.886;2023-04-04T03:10:52;102786.63;;;20.11;33.69
62710;BME280;48770;51.624;5.886;2023-04-04T03:13:17;102781.38;;;20.09;33.80
62710;BME280;48770;51.624;5.886;2023-04-04T03:15:42;102784.47;;;20.08;33.83
62710;BME280;48770;51.624;5.886;2023-04-04T03:18:08;102778.59;;;20.09;33.77
62710;BME280;48770;51.624;5.886;2023-04-04T03:20:34;102768.94;;;20.07;33.71
62710;BME280;48770;51.624;5.886;2023-04-04T03:22:59;102767.81;;;20.08;33.95
62710;BME280;48770;51.624;5.886;2023-04-04T03:25:24;102773.66;;;20.06;33.88
62710;BME280;48770;51.624;5.886;2023-04-04T03:27:50;102777.56;;;20.05;33.90
62710;BME280;48770;51.624;5.886;2023-04-04T03:30:15;102772.84;;;20.06;33.98
62710;BME280;48770;51.624;5.886;2023-04-04T03:32:40;102770.34;;;20.04;33.82
62710;BME280;48770;51.624;5.886;2023-04-04T03:35:06;102779.50;;;20.05;33.85
62710;BME280;48770;51.624;5.886;2023-04-04T03:37:32;102771.19;;;20.05;33.77
62710;BME280;48770;51.624;5.886;2023-04-04T03:39:58;102771.44;;;20.03;33.73
62710;BME280;48770;51.624;5.886;2023-04-04T03:42:24;102771.44;;;20.03;33.92
62710;BME280;48770;51.624;5.886;2023-04-04T03:44:50;102776.19;;;20.02;33.90
62710;BME280;48770;51.624;5.886;2023-04-04T03:47:17;102769.81;;;20.02;33.76
62710;BME280;48770;51.624;5.886;2023-04-04T03:49:43;102771.75;;;20.01;33.78
62710;BME280;48770;51.624;5.886;2023-04-04T03:52:08;102765.38;;;20.01;33.84
62710;BME280;48770;51.624;5.886;2023-04-04T03:54:33;102769.28;;;20.00;33.81
62710;BME280;48770;51.624;5.886;2023-04-04T03:56:59;102773.19;;;19.99;33.99
62710;BME280;48770;51.624;5.886;2023-04-04T03:59:24;102770.41;;;19.99;33.78
62710;BME280;48770;51.624;5.886;2023-04-04T04:01:49;102770.41;;;19.99;33.73
62710;BME280;48770;51.624;5.886;2023-04-04T04:04:15;102766.81;;;19.98;33.70
62710;BME280;48770;51.624;5.886;2023-04-04T04:06:40;102763.19;;;19.98;33.73
62710;BME280;48770;51.624;5.886;2023-04-04T04:09:06;102751.28;;;19.97;33.64
62710;BME280;48770;51.624;5.886;2023-04-04T04:11:32;102753.22;;;19.97;33.95
62710;BME280;48770;51.624;5.886;2023-04-04T04:13:57;102755.16;;;19.96;33.47
62710;BME280;48770;51.624;5.886;2023-04-04T04:16:22;102761.84;;;19.95;33.81
62710;BME280;48770;51.624;5.886;2023-04-04T04:18:48;102749.94;;;19.95;33.62
62710;BME280;48770;51.624;5.886;2023-04-04T04:21:14;102753.81;;;19.94;33.83
62710;BME280;48770;51.624;5.886;2023-04-04T04:23:39;102754.66;;;19.94;33.70
62710;BME280;48770;51.624;5.886;2023-04-04T04:26:05;102754.94;;;19.93;33.63
62710;BME280;48770;51.624;5.886;2023-04-04T04:28:30;102758.56;;;19.93;33.83
62710;BME280;48770;51.624;5.886;2023-04-04T04:31:03;102756.91;;;19.92;33.74
62710;BME280;48770;51.624;5.886;2023-04-04T04:33:28;102749.69;;;19.91;33.64
62710;BME280;48770;51.624;5.886;2023-04-04T04:36:01;102758.03;;;19.91;33.75
62710;BME280;48770;51.624;5.886;2023-04-04T04:38:27;102756.69;;;19.89;33.81
62710;BME280;48770;51.624;5.886;2023-04-04T04:40:53;102754.72;;;19.89;33.74
62710;BME280;48770;51.624;5.886;2023-04-04T04:43:18;102757.50;;;19.89;33.69
62710;BME280;48770;51.624;5.886;2023-04-04T04:45:43;102763.06;;;19.89;34.02
62710;BME280;48770;51.624;5.886;2023-04-04T04:48:09;102765.31;;;19.87;33.78
62710;BME280;48770;51.624;5.886;2023-04-04T04:50:34;102763.66;;;19.86;33.88
62710;BME280;48770;51.624;5.886;2023-04-04T04:52:59;102765.59;;;19.86;33.63
62710;BME280;48770;51.624;5.886;2023-04-04T04:55:24;102772.28;;;19.85;33.81
62710;BME280;48770;51.624;5.886;2023-04-04T04:57:50;102773.13;;;19.85;33.81
62710;BME280;48770;51.624;5.886;2023-04-04T05:00:17;102777.53;;;19.86;33.59
62710;BME280;48770;51.624;5.886;2023-04-04T05:02:42;102773.94;;;19.86;33.79
62710;BME280;48770;51.624;5.886;2023-04-04T05:05:07;102775.06;;;19.85;33.73
62710;BME280;48770;51.624;5.886;2023-04-04T05:07:33;102774.25;;;19.84;33.77
62710;BME280;48770;51.624;5.886;2023-04-04T05:09:58;102773.41;;;19.84;33.74
62710;BME280;48770;51.624;5.886;2023-04-04T05:12:23;102766.22;;;19.83;34.00
62710;BME280;48770;51.624;5.886;2023-04-04T05:14:48;102769.81;;;19.83;33.81
62710;BME280;48770;51.624;5.886;2023-04-04T05:17:14;102775.66;;;19.82;33.58
62710;BME280;48770;51.624;5.886;2023-04-04T05:19:39;102774.53;;;19.83;33.70
62710;BME280;48770;51.624;5.886;2023-04-04T05:22:05;102777.63;;;19.81;33.61
62710;BME280;48770;51.624;5.886;2023-04-04T05:24:31;102774.84;;;19.81;33.67
62710;BME280;48770;51.624;5.886;2023-04-04T05:26:57;102773.19;;;19.80;33.79
62710;BME280;48770;51.624;5.886;2023-04-04T05:29:22;102777.09;;;19.79;33.66
62710;BME280;48770;51.624;5.886;2023-04-04T05:31:48;102782.66;;;19.79;33.72
62710;BME280;48770;51.624;5.886;2023-04-04T05:34:13;102779.88;;;19.79;33.75
62710;BME280;48770;51.624;5.886;2023-04-04T05:36:38;102782.91;;;19.78;33.82
62710;BME280;48770;51.624;5.886;2023-04-04T05:39:03;102787.63;;;19.77;33.49
62710;BME280;48770;51.624;5.886;2023-04-04T05:41:29;102790.41;;;19.77;33.94
62710;BME280;48770;51.624;5.886;2023-04-04T05:43:55;102790.41;;;19.77;33.70
62710;BME280;48770;51.624;5.886;2023-04-04T05:46:20;102788.25;;;19.74;33.71
62710;BME280;48770;51.624;5.886;2023-04-04T05:48:45;102787.94;;;19.76;33.74
62710;BME280;48770;51.624;5.886;2023-04-04T05:51:11;102797.09;;;19.76;33.83
62710;BME280;48770;51.624;5.886;2023-04-04T05:53:36;102798.22;;;19.75;33.55
62710;BME280;48770;51.624;5.886;2023-04-04T05:56:01;102791.00;;;19.74;33.70
62710;BME280;48770;51.624;5.886;2023-04-04T05:58:27;102803.75;;;19.75;33.70
62710;BME280;48770;51.624;5.886;2023-04-04T06:00:52;102799.34;;;19.74;33.63
62710;BME280;48770;51.624;5.886;2023-04-04T06:03:18;102803.75;;;19.75;33.77
62710;BME280;48770;51.624;5.886;2023-04-04T06:05:43;102803.75;;;19.75;33.69
62710;BME280;48770;51.624;5.886;2023-04-04T06:08:08;102804.59;;;19.76;33.76
62710;BME280;48770;51.624;5.886;2023-04-04T06:10:34;102804.59;;;19.76;33.69
62710;BME280;48770;51.624;5.886;2023-04-04T06:12:59;102810.97;;;19.76;33.61
62710;BME280;48770;51.624;5.886;2023-04-04T06:15:25;102803.75;;;19.75;33.51
62710;BME280;48770;51.624;5.886;2023-04-04T06:17:50;102810.13;;;19.76;33.63
62710;BME280;48770;51.624;5.886;2023-04-04T06:20:15;102809.84;;;19.77;33.47
62710;BME280;48770;51.624;5.886;2023-04-04T06:22:43;102820.94;;;19.77;33.64
62710;BME280;48770;51.624;5.886;2023-04-04T06:25:08;102826.78;;;19.76;33.67
62710;BME280;48770;51.624;5.886;2023-04-04T06:27:34;102821.78;;;19.78;33.38
62710;BME280;48770;51.624;5.886;2023-04-04T06:30:00;102826.50;;;19.77;33.74
62710;BME280;48770;51.624;5.886;2023-04-04T06:32:26;102826.50;;;19.77;33.56
62710;BME280;48770;51.624;5.886;2023-04-04T06:34:52;102832.88;;;19.78;33.58
62710;BME280;48770;51.624;5.886;2023-04-04T06:37:17;102820.13;;;19.77;33.50
62710;BME280;48770;51.624;5.886;2023-04-04T06:39:43;102826.50;;;19.77;33.53
62710;BME280;48770;51.624;5.886;2023-04-04T06:42:08;102829.28;;;19.77;33.56
62710;BME280;48770;51.624;5.886;2023-04-04T06:44:33;102835.94;;;19.76;33.57
62710;BME280;48770;51.624;5.886;2023-04-04T06:46:59;102836.78;;;19.77;33.71
62710;BME280;48770;51.624;5.886;2023-04-04T06:49:25;102836.78;;;19.77;33.49
62710;BME280;48770;51.624;5.886;2023-04-04T06:51:51;102835.94;;;19.76;33.37
62710;BME280;48770;51.624;5.886;2023-04-04T06:54:16;102832.06;;;19.77;33.58
62710;BME280;48770;51.624;5.886;2023-04-04T06:56:42;102829.28;;;19.77;33.38
62710;BME280;48770;51.624;5.886;2023-04-04T06:59:07;102816.53;;;19.76;33.53
62710;BME280;48770;51.624;5.886;2023-04-04T07:01:35;102830.41;;;19.76;33.53
62710;BME280;48770;51.624;5.886;2023-04-04T07:04:01;102830.41;;;19.76;33.57
62710;BME280;48770;51.624;5.886;2023-04-04T07:06:26;102827.63;;;19.76;33.71
62710;BME280;48770;51.624;5.886;2023-04-04T07:08:53;102834.81;;;19.77;33.62
62710;BME280;48770;51.624;5.886;2023-04-04T07:11:19;102836.78;;;19.77;33.49
62710;BME280;48770;51.624;5.886;2023-04-04T07:13:44;102833.19;;;19.76;33.51
62710;BME280;48770;51.624;5.886;2023-04-04T07:16:09;102829.28;;;19.77;33.37
62710;BME280;48770;51.624;5.886;2023-04-04T07:18:36;102823.72;;;19.77;33.41
62710;BME280;48770;51.624;5.886;2023-04-04T07:21:01;102828.44;;;19.77;33.41
62710;BME280;48770;51.624;5.886;2023-04-04T07:23:26;102832.06;;;19.77;33.50
62710;BME280;48770;51.624;5.886;2023-04-04T07:25:52;102837.59;;;19.77;33.55
62710;BME280;48770;51.624;5.886;2023-04-04T07:28:17;102830.41;;;19.76;33.43
62710;BME280;48770;51.624;5.886;2023-04-04T07:30:42;102819.28;;;19.76;33.44
62710;BME280;48770;51.624;5.886;2023-04-04T07:33:08;102815.41;;;19.77;33.53
62710;BME280;48770;51.624;5.886;2023-04-04T07:35:33;102829.28;;;19.77;33.41
62710;BME280;48770;51.624;5.886;2023-04-04T07:37:59;102817.06;;;19.78;33.60
62710;BME280;48770;51.624;5.886;2023-04-04T07:40:24;102832.88;;;19.78;33.73
62710;BME280;48770;51.624;5.886;2023-04-04T07:42:50;102834.56;;;19.79;33.46
62710;BME280;48770;51.624;5.886;2023-04-04T07:45:16;102823.44;;;19.79;33.57
62710;BME280;48770;51.624;5.886;2023-04-04T07:47:43;102824.28;;;19.79;33.66
62710;BME280;48770;51.624;5.886;2023-04-04T07:50:09;102832.59;;;19.79;33.52
62710;BME280;48770;51.624;5.886;2023-04-04T07:52:35;102832.31;;;19.81;33.62
62710;BME280;48770;51.624;5.886;2023-04-04T07:55:00;102836.22;;;19.80;33.61
62710;BME280;48770;51.624;5.886;2023-04-04T07:57:27;102833.44;;;19.80;33.67
62710;BME280;48770;51.624;5.886;2023-04-04T07:59:52;102826.75;;;19.81;33.65
62710;BME280;48770;51.624;5.886;2023-04-04T08:02:18;102836.22;;;19.80;33.71
62710;BME280;48770;51.624;5.886;2023-04-04T08:04:43;102826.75;;;19.81;33.61
62710;BME280;48770;51.624;5.886;2023-04-04T08:07:08;102825.94;;;19.80;33.65
62710;BME280;48770;51.624;5.886;2023-04-04T08:09:34;102832.59;;;19.79;33.59
62710;BME280;48770;51.624;5.886;2023-04-04T08:12:01;102837.88;;;19.81;33.80
62710;BME280;48770;51.624;5.886;2023-04-04T08:14:26;102825.09;;;19.80;33.80
62710;BME280;48770;51.624;5.886;2023-04-04T08:16:52;102824.81;;;19.81;33.42
62710;BME280;48770;51.624;5.886;2023-04-04T08:19:18;102827.59;;;19.81;33.73
62710;BME280;48770;51.624;5.886;2023-04-04T08:21:43;102818.44;;;19.81;33.60
62710;BME280;48770;51.624;5.886;2023-04-04T08:24:10;102826.75;;;19.81;33.76
62710;BME280;48770;51.624;5.886;2023-04-04T08:26:35;102815.66;;;19.81;33.79
62710;BME280;48770;51.624;5.886;2023-04-04T08:29:01;102821.22;;;19.81;33.54
62710;BME280;48770;51.624;5.886;2023-04-04T08:31:26;102837.88;;;19.81;33.74
62710;BME280;48770;51.624;5.886;2023-04-04T08:33:52;102822.84;;;19.82;33.72
62710;BME280;48770;51.624;5.886;2023-04-04T08:36:17;102813.72;;;19.81;33.66
62710;BME280;48770;51.624;5.886;2023-04-04T08:38:43;102811.75;;;19.82;33.79
62710;BME280;48770;51.624;5.886;2023-04-04T08:41:10;102812.56;;;19.82;33.75
62710;BME280;48770;51.624;5.886;2023-04-04T08:43:37;102812.56;;;19.82;33.58
62710;BME280;48770;51.624;5.886;2023-04-04T08:46:04;102804.25;;;19.82;33.70
62710;BME280;48770;51.624;5.886;2023-04-04T08:48:30;102811.44;;;19.83;33.50
62710;BME280;48770;51.624;5.886;2023-04-04T08:50:58;102817.00;;;19.83;33.58
62710;BME280;48770;51.624;5.886;2023-04-04T08:53:24;102815.06;;;19.84;33.73
62710;BME280;48770;51.624;5.886;2023-04-04T08:55:52;102817.84;;;19.84;33.58
62710;BME280;48770;51.624;5.886;2023-04-04T08:58:18;102812.56;;;19.82;33.70
62710;BME280;48770;51.624;5.886;2023-04-04T09:00:43;102810.63;;;19.83;33.78
62710;BME280;48770;51.624;5.886;2023-04-04T09:03:25;102814.53;;;19.82;33.61
62710;BME280;48770;51.624;5.886;2023-04-04T09:05:53;102820.91;;;19.82;33.66
62710;BME280;48770;51.624;5.886;2023-04-04T09:08:20;102804.84;;;19.79;33.54
62710;BME280;48770;51.624;5.886;2023-04-04T09:10:46;102807.63;;;19.79;32.75
62710;BME280;48770;51.624;5.886;2023-04-04T09:13:12;102805.13;;;19.78;32.49
62710;BME280;48770;51.624;5.886;2023-04-04T09:15:39;102809.00;;;19.77;32.13
62710;BME280;48770;51.624;5.886;2023-04-04T09:18:06;102801.28;;;19.74;31.75
62710;BME280;48770;51.624;5.886;2023-04-04T09:20:42;102798.81;;;19.72;31.62
62710;BME280;48770;51.624;5.886;2023-04-04T09:23:18;102805.50;;;19.71;31.33
62710;BME280;48770;51.624;5.886;2023-04-04T09:25:52;102806.91;;;19.68;31.11
62710;BME280;48770;51.624;5.886;2023-04-04T09:28:18;102806.91;;;19.68;31.02
62710;BME280;48770;51.624;5.886;2023-04-04T09:30:47;102797.22;;;19.66;30.52
62710;BME280;48770;51.624;5.886;2023-04-04T09:33:14;102806.69;;;19.65;30.24
62710;BME280;48770;51.624;5.886;2023-04-04T09:35:44;102804.22;;;19.63;30.13
62710;BME280;48770;51.624;5.886;2023-04-04T09:38:10;102802.56;;;19.62;29.88
62710;BME280;48770;51.624;5.886;2023-04-04T09:40:36;102810.88;;;19.62;29.55
62710;BME280;48770;51.624;5.886;2023-04-04T09:43:03;102807.28;;;19.62;29.49
62710;BME280;48770;51.624;5.886;2023-04-04T09:45:32;102802.03;;;19.60;29.46
62710;BME280;48770;51.624;5.886;2023-04-04T09:47:58;102790.94;;;19.60;29.16
62710;BME280;48770;51.624;5.886;2023-04-04T09:50:24;102808.69;;;19.59;29.34
62710;BME280;48770;51.624;5.886;2023-04-04T09:52:50;102800.69;;;19.58;29.02
62710;BME280;48770;51.624;5.886;2023-04-04T09:55:16;102780.94;;;19.59;28.82
62710;BME280;48770;51.624;5.886;2023-04-04T09:57:42;102798.72;;;19.58;28.57
62710;BME280;48770;51.624;5.886;2023-04-04T10:00:10;102789.56;;;19.58;28.49
62710;BME280;48770;51.624;5.886;2023-04-04T10:02:38;102784.03;;;19.58;28.16
62710;BME280;48770;51.624;5.886;2023-04-04T10:05:08;102787.94;;;19.57;28.37
62710;BME280;48770;51.624;5.886;2023-04-04T10:07:37;102796.25;;;19.57;28.21
62710;BME280;48770;51.624;5.886;2023-04-04T10:10:07;102795.72;;;19.55;28.01
62710;BME280;48770;51.624;5.886;2023-04-04T10:12:33;102794.59;;;19.56;28.08
62710;BME280;48770;51.624;5.886;2023-04-04T10:15:00;102787.09;;;19.56;27.98
62710;BME280;48770;51.624;5.886;2023-04-04T10:17:39;102779.59;;;19.57;27.99
62710;BME280;48770;51.624;5.886;2023-04-04T10:20:06;102780.44;;;19.57;27.99
62710;BME280;48770;51.624;5.886;2023-04-04T10:22:37;102776.81;;;19.57;27.95
62710;BME280;48770;51.624;5.886;2023-04-04T10:25:06;102781.25;;;19.58;27.80
62710;BME280;48770;51.624;5.886;2023-04-04T10:27:32;102782.38;;;19.57;27.89
62710;BME280;48770;51.624;5.886;2023-04-04T10:29:59;102776.22;;;19.60;27.87
62710;BME280;48770;51.624;5.886;2023-04-04T10:32:49;102774.28;;;19.60;27.78
62710;BME280;48770;51.624;5.886;2023-04-04T10:35:20;102771.19;;;19.62;27.66
62710;BME280;48770;51.624;5.886;2023-04-04T10:37:55;102780.06;;;19.64;27.80
62710;BME280;48770;51.624;5.886;2023-04-04T10:40:23;102775.03;;;19.66;27.59
62710;BME280;48770;51.624;5.886;2023-04-04T10:42:52;102776.38;;;19.68;27.70
62710;BME280;48770;51.624;5.886;2023-04-04T10:45:18;102771.34;;;19.70;27.82
62710;BME280;48770;51.624;5.886;2023-04-04T10:47:43;102771.88;;;19.73;27.59
62710;BME280;48770;51.624;5.886;2023-04-04T10:50:10;102770.47;;;19.75;28.00
62710;BME280;48770;51.624;5.886;2023-04-04T10:52:38;102763.78;;;19.76;27.75
62710;BME280;48770;51.624;5.886;2023-04-04T10:55:06;102758.78;;;19.78;27.44
62710;BME280;48770;51.624;5.886;2023-04-04T10:57:35;102762.38;;;19.79;27.70
62710;BME280;48770;51.624;5.886;2023-04-04T11:00:06;102761.25;;;19.80;27.41
62710;BME280;48770;51.624;5.886;2023-04-04T11:10:28;102744.31;;;19.81;27.30
62710;BME280;48770;51.624;5.886;2023-04-04T11:12:55;102748.44;;;19.84;27.07
62710;BME280;48770;51.624;5.886;2023-04-04T11:15:24;102743.69;;;19.84;26.90
62710;BME280;48770;51.624;5.886;2023-04-04T11:17:53;102738.97;;;19.85;26.91
62710;BME280;48770;51.624;5.886;2023-04-04T11:20:21;102737.84;;;19.86;27.04
62710;BME280;48770;51.624;5.886;2023-04-04T11:23:00;102732.28;;;19.86;26.78
62710;BME280;48770;51.624;5.886;2023-04-04T11:25:40;102737.03;;;19.85;26.84
62710;BME280;48770;51.624;5.886;2023-04-04T11:28:14;102727.88;;;19.85;26.66
62710;BME280;48770;51.624;5.886;2023-04-04T11:44:16;102717.81;;;19.89;27.09
62710;BME280;48770;51.624;5.886;2023-04-04T11:46:41;102713.91;;;19.90;26.85
62710;BME280;48770;51.624;5.886;2023-04-04T11:49:08;102709.72;;;19.92;26.82
62710;BME280;48770;51.624;5.886;2023-04-04T11:51:34;102700.78;;;19.95;26.56
62710;BME280;48770;51.624;5.886;2023-04-04T11:54:00;102711.56;;;19.97;26.62
62710;BME280;48770;51.624;5.886;2023-04-04T11:56:26;102706.84;;;19.97;26.73
62710;BME280;48770;51.624;5.886;2023-04-04T11:58:51;102705.41;;;20.00;26.57
62710;BME280;48770;51.624;5.886;2023-04-04T12:01:18;102705.94;;;20.02;26.39
62710;BME280;48770;51.624;5.886;2023-04-04T12:03:44;102700.94;;;20.04;26.47
62710;BME280;48770;51.624;5.886;2023-04-04T12:06:10;102695.91;;;20.06;26.53
62710;BME280;48770;51.624;5.886;2023-04-04T12:08:35;102701.97;;;20.08;26.18
62710;BME280;48770;51.624;5.886;2023-04-04T12:11:03;102697.78;;;20.11;26.51
62710;BME280;48770;51.624;5.886;2023-04-04T12:13:30;102695.50;;;20.13;26.14
62710;BME280;48770;51.624;5.886;2023-04-04T12:15:56;102695.22;;;20.14;26.07
62710;BME280;48770;51.624;5.886;2023-04-04T12:18:22;102694.28;;;20.19;26.25
62710;BME280;48770;51.624;5.886;2023-04-04T12:20:49;102689.78;;;20.23;26.12
62710;BME280;48770;51.624;5.886;2023-04-04T12:23:15;102683.59;;;20.26;26.22
62710;BME280;48770;51.624;5.886;2023-04-04T12:25:40;102665.22;;;20.30;26.20
62710;BME280;48770;51.624;5.886;2023-04-04T12:28:08;102666.25;;;20.34;25.99
62710;BME280;48770;51.624;5.886;2023-04-04T12:30:35;102671.72;;;20.39;26.44
62710;BME280;48770;51.624;5.886;2023-04-04T12:33:01;102664.16;;;20.45;26.42
62710;BME280;48770;51.624;5.886;2023-04-04T12:35:28;102663.22;;;20.49;26.34
62710;BME280;48770;51.624;5.886;2023-04-04T12:38:04;102654.78;;;20.54;27.02
62710;BME280;48770;51.624;5.886;2023-04-04T12:40:36;102649.16;;;20.59;27.05
62710;BME280;48770;51.624;5.886;2023-04-04T12:43:06;102644.00;;;20.67;27.17
62710;BME280;48770;51.624;5.886;2023-04-04T12:45:35;102648.34;;;20.73;27.35
62710;BME280;48770;51.624;5.886;2023-04-04T12:48:08;102634.31;;;20.78;27.34
62710;BME280;48770;51.624;5.886;2023-04-04T12:50:48;102628.16;;;20.81;27.51
62710;BME280;48770;51.624;5.886;2023-04-04T12:53:13;102626.94;;;20.87;27.72
62710;BME280;48770;51.624;5.886;2023-04-04T12:55:45;102631.25;;;20.93;27.51
62710;BME280;48770;51.624;5.886;2023-04-04T12:58:10;102617.75;;;21.00;27.78
62710;BME280;48770;51.624;5.886;2023-04-04T13:00:37;102617.31;;;21.07;27.67
62710;BME280;48770;51.624;5.886;2023-04-04T13:03:03;102618.56;;;21.14;27.75
62710;BME280;48770;51.624;5.886;2023-04-04T13:05:32;102612.06;;;21.19;27.74
62710;BME280;48770;51.624;5.886;2023-04-04T13:08:09;102618.88;;;21.27;27.52